Time;durP1;ratioP1;P1;durP2;ratioP2;P2;SDS_P1;SDS_P2;PMS_P1;PMS_P2;Temp;Humidity;BMP_temperature;BMP_pressure;BME280_temperature;BME280_humidity;BME280_pressure;Samples;Min_cycle;Max_cycle;Signal;HPM_P1;HPM_P2
2022/09/03 00:02:06;;;;;;;11.40;7.85;;;;;;;;;;5034744;28;20040;-80
2022/09/03 00:04:39;;;;;;;9.15;7.57;;;;;;;;;;5034512;28;20116;-82
2022/09/03 00:07:19;;;;;;;13.63;9.07;;;;;;;;;;5034811;28;20098;-82
2022/09/03 00:09:58;;;;;;;14.32;8.30;;;;;;;;;;5033470;28;20037;-82
2022/09/03 00:12:28;;;;;;;11.82;8.48;;;;;;;;;;5034557;28;20029;-82
2022/09/03 00:15:00;;;;;;;11.45;8.25;;;;;;;;;;5034278;28;20469;-82
2022/09/03 00:17:44;;;;;;;10.10;6.68;;;;;;;;;;5034318;28;20029;-82
2022/09/03 00:20:16;;;;;;;8.85;6.95;;;;;;;;;;5033238;28;20044;-82
2022/09/03 00:22:48;;;;;;;9.32;6.63;;;;;;;;;;5034563;28;20039;-82
2022/09/03 00:25:20;;;;;;;9.25;6.80;;;;;;;;;;5034214;28;20034;-82
2022/09/03 00:27:50;;;;;;;6.60;4.60;;;;;;;;;;5034482;28;20494;-82
2022/09/03 00:30:16;;;;;;;8.10;4.47;;;;;;;;;;5034243;28;20044;-82
2022/09/03 00:32:46;;;;;;;5.47;4.25;;;;;;;;;;5033726;28;20026;-82
2022/09/03 00:35:35;;;;;;;6.97;5.22;;;;;;;;;;5033114;28;20029;-82
2022/09/03 00:38:01;;;;;;;6.97;5.10;;;;;;;;;;5024219;28;20068;-82
2022/09/03 00:40:55;;;;;;;6.72;5.22;;;;;;;;;;5033326;28;20448;-82
2022/09/03 00:43:31;;;;;;;8.43;5.05;;;;;;;;;;5008268;28;20088;-82
2022/09/03 00:45:56;;;;;;;8.60;5.43;;;;;;;;;;5016305;28;20128;-82
2022/09/03 00:48:30;;;;;;;6.20;5.00;;;;;;;;;;5034095;28;20096;-82
2022/09/03 00:51:11;;;;;;;8.65;5.95;;;;;;;;;;5032894;28;20216;-82
2022/09/03 00:54:01;;;;;;;6.65;5.32;;;;;;;;;;5033724;28;20021;-82
2022/09/03 00:56:39;;;;;;;7.88;5.32;;;;;;;;;;5034159;28;20038;-81
2022/09/03 00:59:21;;;;;;;7.20;5.20;;;;;;;;;;5033954;28;20029;-82
2022/09/03 01:02:27;;;;;;;7.35;5.30;;;;;;;;;;5033924;28;20033;-82
2022/09/03 01:04:55;;;;;;;6.80;5.30;;;;;;;;;;5003136;28;20121;-82
2022/09/03 01:07:33;;;;;;;6.88;5.00;;;;;;;;;;5033706;28;20414;-82
2022/09/03 01:10:31;;;;;;;5.30;4.75;;;;;;;;;;5033179;28;20037;-82
2022/09/03 01:13:18;;;;;;;8.80;5.10;;;;;;;;;;5032499;28;20064;-81
2022/09/03 01:16:00;;;;;;;7.53;4.60;;;;;;;;;;5033298;28;20037;-82
2022/09/03 01:18:49;;;;;;;8.80;4.95;;;;;;;;;;5033435;28;20056;-82
2022/09/03 01:21:37;;;;;;;6.03;4.88;;;;;;;;;;5033213;28;20033;-82
2022/09/03 01:24:16;;;;;;;7.72;5.00;;;;;;;;;;5031740;28;20033;-82
2022/09/03 01:26:54;;;;;;;6.47;4.50;;;;;;;;;;5033264;28;20041;-82
2022/09/03 01:29:27;;;;;;;7.60;4.45;;;;;;;;;;5033510;28;20044;-81
2022/09/03 01:32:05;;;;;;;5.18;4.50;;;;;;;;;;5033164;28;20490;-82
2022/09/03 01:34:49;;;;;;;6.78;4.75;;;;;;;;;;5033359;28;20033;-82
2022/09/03 01:37:32;;;;;;;7.57;5.10;;;;;;;;;;5032920;28;20039;-82
2022/09/03 01:40:07;;;;;;;8.90;4.72;;;;;;;;;;5031911;28;20025;-81
2022/09/03 01:43:31;;;;;;;5.80;4.65;;;;;;;;;;5033246;28;20108;-83
2022/09/03 01:46:12;;;;;;;7.13;4.00;;;;;;;;;;4971676;28;20130;-81
2022/09/03 01:49:03;;;;;;;5.15;3.70;;;;;;;;;;5033012;28;20482;-82
2022/09/03 01:51:31;;;;;;;5.65;4.05;;;;;;;;;;5032863;28;20049;-82
2022/09/03 01:54:19;;;;;;;5.47;3.55;;;;;;;;;;5032631;28;20422;-80
2022/09/03 01:56:59;;;;;;;5.43;3.72;;;;;;;;;;5031402;28;20041;-82
2022/09/03 01:59:28;;;;;;;4.72;3.38;;;;;;;;;;5015153;28;20033;-82
2022/09/03 02:02:19;;;;;;;6.65;3.20;;;;;;;;;;5032943;28;20049;-82
2022/09/03 02:05:02;;;;;;;4.07;3.13;;;;;;;;;;5014873;28;20483;-81
2022/09/03 02:07:35;;;;;;;3.40;2.90;;;;;;;;;;5032815;28;20099;-81
2022/09/03 02:10:04;;;;;;;6.68;3.50;;;;;;;;;;5032573;28;20417;-81
2022/09/03 02:12:34;;;;;;;5.05;3.67;;;;;;;;;;5032778;28;20033;-82
2022/09/03 02:15:03;;;;;;;6.80;4.10;;;;;;;;;;5032514;28;20033;-81
2022/09/03 02:17:32;;;;;;;4.60;3.53;;;;;;;;;;5032689;28;20041;-82
2022/09/03 02:20:02;;;;;;;7.07;3.95;;;;;;;;;;5032511;28;20098;-81
2022/09/03 02:22:28;;;;;;;4.95;3.47;;;;;;;;;;5031065;28;20030;-81
2022/09/03 02:24:53;;;;;;;4.57;3.25;;;;;;;;;;5032229;28;20037;-82
2022/09/03 02:27:19;;;;;;;5.70;3.50;;;;;;;;;;5032362;28;20082;-82
2022/09/03 02:29:45;;;;;;;4.90;3.45;;;;;;;;;;5032609;28;20068;-82
2022/09/03 02:32:13;;;;;;;5.97;3.90;;;;;;;;;;5032541;28;20025;-82
2022/09/03 02:34:41;;;;;;;6.20;3.67;;;;;;;;;;5031911;28;20073;-82
2022/09/03 02:37:15;;;;;;;5.78;3.75;;;;;;;;;;5032326;28;20053;-82
2022/09/03 02:39:40;;;;;;;4.35;3.80;;;;;;;;;;5031083;28;20029;-81
2022/09/03 02:42:09;;;;;;;5.75;3.80;;;;;;;;;;5032460;28;20048;-82
2022/09/03 02:44:38;;;;;;;4.53;3.40;;;;;;;;;;5032160;28;20504;-82
2022/09/03 02:47:06;;;;;;;4.70;3.20;;;;;;;;;;5032194;28;20486;-82
2022/09/03 02:49:32;;;;;;;3.92;2.90;;;;;;;;;;5030919;28;20037;-82
2022/09/03 02:52:08;;;;;;;5.88;3.15;;;;;;;;;;5030921;28;20052;-80
2022/09/03 02:54:38;;;;;;;4.43;3.13;;;;;;;;;;5030950;28;20583;-82
2022/09/03 02:57:06;;;;;;;4.68;2.60;;;;;;;;;;5032340;28;20546;-82
2022/09/03 02:59:31;;;;;;;4.28;3.17;;;;;;;;;;5032351;28;20427;-82
2022/09/03 03:01:57;;;;;;;3.55;2.40;;;;;;;;;;5031890;28;20025;-81
2022/09/03 03:04:23;;;;;;;2.83;2.30;;;;;;;;;;5031809;28;20121;-82
2022/09/03 03:06:49;;;;;;;4.95;2.60;;;;;;;;;;5032111;28;20056;-81
2022/09/03 03:09:16;;;;;;;3.88;2.83;;;;;;;;;;5033258;28;20040;-82
2022/09/03 03:11:41;;;;;;;3.45;2.53;;;;;;;;;;5035700;28;20037;-82
2022/09/03 03:14:07;;;;;;;6.35;2.50;;;;;;;;;;5035465;28;20025;-82
2022/09/03 03:16:33;;;;;;;4.72;2.70;;;;;;;;;;5035896;28;20029;-82
2022/09/03 03:18:59;;;;;;;5.40;2.72;;;;;;;;;;5035768;28;20162;-81
2022/09/03 03:21:24;;;;;;;4.60;2.70;;;;;;;;;;5035702;28;20040;-81
2022/09/03 03:23:51;;;;;;;3.45;2.90;;;;;;;;;;5018721;28;20406;-81
2022/09/03 03:26:18;;;;;;;4.90;2.70;;;;;;;;;;5035081;28;20072;-81
2022/09/03 03:28:45;;;;;;;5.03;3.17;;;;;;;;;;5035420;28;20045;-81
2022/09/03 03:31:13;;;;;;;6.28;3.22;;;;;;;;;;5035498;28;20029;-81
2022/09/03 03:33:40;;;;;;;3.83;3.00;;;;;;;;;;5017804;28;20124;-82
2022/09/03 03:36:15;;;;;;;4.45;2.67;;;;;;;;;;5035371;28;20033;-82
2022/09/03 03:38:43;;;;;;;4.00;2.92;;;;;;;;;;5035477;28;20478;-82
2022/09/03 03:41:09;;;;;;;3.50;2.60;;;;;;;;;;5035307;28;20037;-82
2022/09/03 03:43:34;;;;;;;4.07;2.80;;;;;;;;;;5035341;28;20588;-81
2022/09/03 03:46:00;;;;;;;6.38;2.92;;;;;;;;;;5034181;28;20116;-82
2022/09/03 03:48:26;;;;;;;4.10;2.63;;;;;;;;;;5035048;28;20052;-82
2022/09/03 03:50:52;;;;;;;3.85;2.90;;;;;;;;;;5035357;28;20034;-82
2022/09/03 03:53:18;;;;;;;3.63;2.80;;;;;;;;;;5035018;28;20041;-82
2022/09/03 03:55:53;;;;;;;3.95;2.80;;;;;;;;;;5033441;28;20043;-82
2022/09/03 03:58:19;;;;;;;5.55;2.75;;;;;;;;;;5033832;28;20117;-82
2022/09/03 04:00:45;;;;;;;4.80;3.10;;;;;;;;;;5017535;28;20063;-82
2022/09/03 04:03:10;;;;;;;3.85;2.67;;;;;;;;;;5033740;28;20742;-82
2022/09/03 04:05:35;;;;;;;3.72;2.55;;;;;;;;;;5034728;28;20519;-81
2022/09/03 04:08:01;;;;;;;5.75;2.75;;;;;;;;;;5034692;28;20041;-82
2022/09/03 04:10:27;;;;;;;3.80;2.88;;;;;;;;;;5034593;28;20043;-81
2022/09/03 04:12:55;;;;;;;3.83;2.85;;;;;;;;;;5034679;28;20030;-82
2022/09/03 04:15:20;;;;;;;4.82;2.78;;;;;;;;;;5034214;28;20057;-82
2022/09/03 04:17:46;;;;;;;2.92;2.63;;;;;;;;;;5034967;28;20513;-81
2022/09/03 04:20:11;;;;;;;4.18;2.80;;;;;;;;;;5034193;28;20037;-82
2022/09/03 04:22:37;;;;;;;3.20;2.90;;;;;;;;;;5034608;28;20072;-81
2022/09/03 04:25:03;;;;;;;3.88;2.72;;;;;;;;;;5034193;28;20035;-82
2022/09/03 04:27:28;;;;;;;4.63;2.53;;;;;;;;;;5034467;28;20037;-81
2022/09/03 04:29:54;;;;;;;4.10;2.50;;;;;;;;;;5034436;28;20543;-80
2022/09/03 04:35:03;;;;;;;4.05;2.60;;;;;;;;;;5034581;28;20037;-81
2022/09/03 04:37:29;;;;;;;3.45;2.88;;;;;;;;;;5034459;28;20041;-82
2022/09/03 04:39:55;;;;;;;5.00;3.00;;;;;;;;;;5033377;28;20026;-82
2022/09/03 04:42:20;;;;;;;4.78;3.00;;;;;;;;;;5032976;28;20387;-82
2022/09/03 04:44:46;;;;;;;4.30;3.20;;;;;;;;;;5032663;28;20036;-82
2022/09/03 04:47:11;;;;;;;3.55;2.70;;;;;;;;;;5034043;28;20064;-82
2022/09/03 04:49:39;;;;;;;4.78;2.83;;;;;;;;;;5032926;28;20481;-82
2022/09/03 04:52:04;;;;;;;3.40;2.70;;;;;;;;;;5034046;28;20036;-83
2022/09/03 04:54:29;;;;;;;5.53;2.70;;;;;;;;;;5033802;28;20033;-82
2022/09/03 04:56:55;;;;;;;3.35;2.40;;;;;;;;;;5034026;28;20482;-82
2022/09/03 04:59:21;;;;;;;4.75;2.80;;;;;;;;;;5033890;28;20126;-82
2022/09/03 05:01:46;;;;;;;3.10;2.55;;;;;;;;;;5033756;28;20037;-83
2022/09/03 05:04:12;;;;;;;3.47;2.65;;;;;;;;;;5033615;28;20033;-82
2022/09/03 05:06:37;;;;;;;3.88;2.67;;;;;;;;;;5033709;28;20037;-82
2022/09/03 05:09:04;;;;;;;3.25;2.58;;;;;;;;;;5033659;28;20124;-82
2022/09/03 05:11:29;;;;;;;5.05;2.80;;;;;;;;;;5015400;28;20036;-83
2022/09/03 05:13:57;;;;;;;3.85;2.50;;;;;;;;;;5032156;28;20079;-81
2022/09/03 05:16:23;;;;;;;3.58;2.55;;;;;;;;;;5033474;28;20045;-82
2022/09/03 05:18:53;;;;;;;3.35;2.65;;;;;;;;;;5032219;28;20042;-83
2022/09/03 05:21:20;;;;;;;4.20;2.72;;;;;;;;;;5033277;28;20104;-82
2022/09/03 05:23:47;;;;;;;2.75;2.45;;;;;;;;;;5032020;28;20028;-82
2022/09/03 05:26:17;;;;;;;4.45;2.80;;;;;;;;;;5031597;28;20561;-82
2022/09/03 05:28:47;;;;;;;3.50;2.70;;;;;;;;;;5033795;28;20033;-83
2022/09/03 05:31:12;;;;;;;4.72;2.97;;;;;;;;;;5033822;28;20029;-82
2022/09/03 05:33:46;;;;;;;5.18;3.35;;;;;;;;;;5032626;28;20040;-83
2022/09/03 05:36:16;;;;;;;6.00;3.08;;;;;;;;;;5033061;28;20034;-83
2022/09/03 05:38:42;;;;;;;5.97;2.90;;;;;;;;;;5033220;28;20037;-82
2022/09/03 05:41:11;;;;;;;5.22;2.90;;;;;;;;;;5033170;28;20041;-82
2022/09/03 05:43:37;;;;;;;5.93;2.70;;;;;;;;;;5033266;28;20029;-83
2022/09/03 05:46:17;;;;;;;4.13;2.53;;;;;;;;;;5033485;28;20116;-82
2022/09/03 05:48:43;;;;;;;4.35;2.83;;;;;;;;;;5033056;28;20037;-83
2022/09/03 05:51:17;;;;;;;4.72;2.90;;;;;;;;;;5031578;28;20071;-82
2022/09/03 05:53:44;;;;;;;5.60;2.90;;;;;;;;;;5033477;28;20137;-82
2022/09/03 05:56:19;;;;;;;3.78;3.03;;;;;;;;;;5031251;28;20033;-82
2022/09/03 05:58:47;;;;;;;6.13;3.33;;;;;;;;;;5031533;28;20044;-82
2022/09/03 06:01:13;;;;;;;4.00;3.35;;;;;;;;;;5032542;28;20025;-82
2022/09/03 06:03:39;;;;;;;3.78;2.80;;;;;;;;;;5032279;28;20044;-82
2022/09/03 06:06:06;;;;;;;4.50;3.00;;;;;;;;;;5032288;28;20033;-82
2022/09/03 06:08:32;;;;;;;3.83;2.88;;;;;;;;;;5032408;28;20025;-82
2022/09/03 06:11:03;;;;;;;3.25;2.65;;;;;;;;;;5031987;28;20037;-81
2022/09/03 06:13:29;;;;;;;5.10;2.80;;;;;;;;;;5032468;28;20566;-81
2022/09/03 06:15:59;;;;;;;5.25;2.97;;;;;;;;;;5032103;28;20524;-82
2022/09/03 06:18:26;;;;;;;4.20;3.00;;;;;;;;;;5031133;28;20025;-82
2022/09/03 06:20:56;;;;;;;3.65;3.08;;;;;;;;;;5032139;28;20512;-81
2022/09/03 06:23:22;;;;;;;3.92;2.95;;;;;;;;;;5032240;28;20034;-81
2022/09/03 06:25:58;;;;;;;3.15;2.85;;;;;;;;;;5032438;28;20115;-82
2022/09/03 06:28:25;;;;;;;6.97;3.55;;;;;;;;;;5031063;28;20038;-82
2022/09/03 06:30:50;;;;;;;6.90;4.40;;;;;;;;;;5032123;28;20037;-82
2022/09/03 06:33:17;;;;;;;5.10;3.70;;;;;;;;;;5030777;28;20456;-82
2022/09/03 06:35:43;;;;;;;5.65;3.63;;;;;;;;;;5032022;28;20033;-82
2022/09/03 06:38:11;;;;;;;4.78;3.30;;;;;;;;;;5032268;28;20033;-82
2022/09/03 06:40:37;;;;;;;4.07;3.40;;;;;;;;;;5030898;28;20060;-82
2022/09/03 06:43:03;;;;;;;4.13;3.40;;;;;;;;;;5033086;28;20073;-81
2022/09/03 06:45:29;;;;;;;3.50;3.20;;;;;;;;;;5036041;28;20045;-82
2022/09/03 06:47:55;;;;;;;4.18;3.40;;;;;;;;;;5036238;28;20059;-82
2022/09/03 06:50:21;;;;;;;5.82;3.20;;;;;;;;;;5036098;28;20108;-83
2022/09/03 06:52:53;;;;;;;4.85;3.20;;;;;;;;;;5034935;28;20120;-83
2022/09/03 06:55:21;;;;;;;4.78;2.80;;;;;;;;;;5036623;28;20025;-83
2022/09/03 06:57:47;;;;;;;4.18;3.10;;;;;;;;;;5036261;28;20045;-83
2022/09/03 07:00:14;;;;;;;6.15;3.15;;;;;;;;;;5037108;28;20071;-81
2022/09/03 07:02:40;;;;;;;3.25;2.80;;;;;;;;;;5035301;28;20057;-83
2022/09/03 07:05:09;;;;;;;4.07;2.90;;;;;;;;;;5036241;28;20115;-85
2022/09/03 07:07:34;;;;;;;4.47;3.00;;;;;;;;;;5036057;28;20116;-84
2022/09/03 07:10:00;;;;;;;2.88;2.55;;;;;;;;;;5035528;28;20111;-82
2022/09/03 07:12:26;;;;;;;4.88;3.00;;;;;;;;;;5035846;28;20034;-83
2022/09/03 07:14:51;;;;;;;5.22;2.80;;;;;;;;;;5035484;28;20036;-82
2022/09/03 07:17:17;;;;;;;3.85;2.60;;;;;;;;;;5035674;28;20077;-83
2022/09/03 07:19:42;;;;;;;6.10;3.17;;;;;;;;;;5035440;28;20037;-82
2022/09/03 07:22:08;;;;;;;4.90;3.10;;;;;;;;;;5035720;28;20490;-83
2022/09/03 07:24:34;;;;;;;5.53;2.80;;;;;;;;;;5018283;28;20065;-84
2022/09/03 07:27:00;;;;;;;3.95;2.50;;;;;;;;;;5036492;28;20076;-83
2022/09/03 07:29:26;;;;;;;4.47;2.90;;;;;;;;;;5036269;28;20044;-83
2022/09/03 07:31:52;;;;;;;4.95;2.70;;;;;;;;;;5036410;28;20106;-83
2022/09/03 07:34:19;;;;;;;4.18;2.90;;;;;;;;;;5036357;28;20025;-83
2022/09/03 07:36:46;;;;;;;4.63;3.03;;;;;;;;;;5036556;28;20083;-84
2022/09/03 07:39:13;;;;;;;5.55;3.13;;;;;;;;;;5037692;28;20075;-86
2022/09/03 07:41:44;;;;;;;5.07;2.50;;;;;;;;;;5036015;28;20044;-83
2022/09/03 07:44:12;;;;;;;3.50;2.60;;;;;;;;;;5036445;28;20060;-83
2022/09/03 07:46:38;;;;;;;3.70;2.50;;;;;;;;;;5035242;28;20045;-83
2022/09/03 07:49:05;;;;;;;6.07;2.90;;;;;;;;;;5036518;28;20397;-83
2022/09/03 07:51:36;;;;;;;5.10;2.60;;;;;;;;;;5036511;28;20424;-83
2022/09/03 07:54:05;;;;;;;3.28;2.55;;;;;;;;;;5035456;28;20030;-83
2022/09/03 07:56:32;;;;;;;3.85;2.47;;;;;;;;;;5035636;28;20036;-83
2022/09/03 07:58:58;;;;;;;6.45;2.50;;;;;;;;;;5036171;28;20127;-83
2022/09/03 08:01:27;;;;;;;3.20;2.67;;;;;;;;;;5035973;28;20442;-83
2022/09/03 08:03:53;;;;;;;4.43;2.42;;;;;;;;;;5036026;28;20105;-83
2022/09/03 08:06:22;;;;;;;4.40;2.75;;;;;;;;;;5036002;28;20100;-83
2022/09/03 08:08:48;;;;;;;6.28;2.75;;;;;;;;;;5035696;28;20064;-83
2022/09/03 08:11:20;;;;;;;3.67;3.00;;;;;;;;;;5035679;28;20095;-83
2022/09/03 08:13:47;;;;;;;4.40;2.80;;;;;;;;;;5035829;28;20029;-83
2022/09/03 08:16:15;;;;;;;4.03;2.63;;;;;;;;;;5035165;28;20410;-83
2022/09/03 08:18:41;;;;;;;4.00;2.80;;;;;;;;;;5036104;28;20025;-83
2022/09/03 08:21:15;;;;;;;2.95;2.53;;;;;;;;;;5035555;28;20087;-84
2022/09/03 08:23:46;;;;;;;4.50;2.90;;;;;;;;;;5035739;28;20029;-84
2022/09/03 08:26:13;;;;;;;3.42;2.67;;;;;;;;;;5035136;28;20042;-83
2022/09/03 08:28:39;;;;;;;6.65;2.90;;;;;;;;;;5033916;28;20035;-83
2022/09/03 08:31:05;;;;;;;5.05;2.80;;;;;;;;;;5035525;28;20491;-83
2022/09/03 08:33:36;;;;;;;5.20;2.70;;;;;;;;;;5035429;28;20040;-83
2022/09/03 08:36:17;;;;;;;4.68;2.50;;;;;;;;;;5033600;28;20041;-84
2022/09/03 08:38:45;;;;;;;3.10;2.40;;;;;;;;;;5033330;28;20030;-83
2022/09/03 08:41:15;;;;;;;4.90;2.42;;;;;;;;;;5034845;28;20033;-82
2022/09/03 08:44:16;;;;;;;3.70;2.53;;;;;;;;;;5033733;28;20041;-84
2022/09/03 08:47:01;;;;;;;4.68;2.70;;;;;;;;;;5034791;28;20033;-83
2022/09/03 08:49:33;;;;;;;2.92;2.30;;;;;;;;;;5034178;28;20076;-83
2022/09/03 08:52:03;;;;;;;3.42;2.30;;;;;;;;;;5035059;28;20034;-83
2022/09/03 08:54:31;;;;;;;3.63;2.38;;;;;;;;;;5034121;28;20037;-83
2022/09/03 08:57:00;;;;;;;3.05;2.35;;;;;;;;;;5034238;28;20497;-84
2022/09/03 08:59:27;;;;;;;3.17;2.22;;;;;;;;;;5033882;28;20112;-83
2022/09/03 09:02:17;;;;;;;4.40;2.50;;;;;;;;;;5032835;28;20030;-83
2022/09/03 09:05:05;;;;;;;2.67;2.38;;;;;;;;;;5033975;28;20030;-83
2022/09/03 09:07:45;;;;;;;4.78;2.30;;;;;;;;;;5032074;28;20038;-84
2022/09/03 09:10:19;;;;;;;4.13;2.50;;;;;;;;;;5034939;28;20041;-84
2022/09/03 09:13:04;;;;;;;2.65;2.20;;;;;;;;;;5033958;28;20033;-84
2022/09/03 09:15:38;;;;;;;4.88;2.63;;;;;;;;;;5034448;28;20049;-84
2022/09/03 09:18:06;;;;;;;7.40;2.80;;;;;;;;;;5035916;28;20083;-84
2022/09/03 09:20:37;;;;;;;3.70;2.55;;;;;;;;;;5036159;28;20029;-84
2022/09/03 09:23:08;;;;;;;11.25;2.83;;;;;;;;;;5037015;28;20045;-84
2022/09/03 09:25:46;;;;;;;5.10;2.80;;;;;;;;;;5035576;28;20112;-84
2022/09/03 09:28:19;;;;;;;5.68;3.05;;;;;;;;;;5036219;28;20159;-85
2022/09/03 09:30:46;;;;;;;4.35;3.00;;;;;;;;;;5035568;28;20072;-85
2022/09/03 09:33:13;;;;;;;3.95;3.22;;;;;;;;;;5036016;28;20033;-84
2022/09/03 09:35:41;;;;;;;3.30;2.80;;;;;;;;;;5035824;28;20433;-85
2022/09/03 09:38:08;;;;;;;4.07;3.30;;;;;;;;;;5035564;28;20076;-85
2022/09/03 09:40:37;;;;;;;4.03;3.10;;;;;;;;;;5036237;28;20037;-85
2022/09/03 09:43:22;;;;;;;3.70;3.28;;;;;;;;;;5036377;28;20036;-85
2022/09/03 09:45:52;;;;;;;4.80;3.42;;;;;;;;;;5035782;28;20399;-85
2022/09/03 09:48:30;;;;;;;4.93;3.10;;;;;;;;;;5036455;28;20042;-85
2022/09/03 09:51:05;;;;;;;3.55;3.17;;;;;;;;;;5035226;28;20033;-85
2022/09/03 09:53:31;;;;;;;5.07;3.00;;;;;;;;;;5036038;28;20063;-85
2022/09/03 09:55:57;;;;;;;5.00;3.33;;;;;;;;;;5034062;28;20573;-85
2022/09/03 09:58:25;;;;;;;6.20;3.30;;;;;;;;;;5035351;28;20090;-85
2022/09/03 10:01:13;;;;;;;4.13;3.10;;;;;;;;;;5035399;28;20485;-85
2022/09/03 10:03:59;;;;;;;3.20;2.80;;;;;;;;;;5035172;28;20090;-85
2022/09/03 10:09:17;;;;;;;5.90;2.80;;;;;;;;;;5035398;28;20041;-84
2022/09/03 10:11:50;;;;;;;3.83;2.85;;;;;;;;;;5034794;28;20037;-85
2022/09/03 10:14:39;;;;;;;3.83;2.58;;;;;;;;;;5034885;28;20406;-85
2022/09/03 10:17:27;;;;;;;2.95;2.30;;;;;;;;;;5033826;28;20041;-84
2022/09/03 10:20:26;;;;;;;3.33;2.65;;;;;;;;;;5034084;28;20035;-85
2022/09/03 10:23:03;;;;;;;3.55;2.70;;;;;;;;;;5034575;28;20076;-85
2022/09/03 10:26:07;;;;;;;3.72;2.85;;;;;;;;;;5033909;28;20025;-84
2022/09/03 10:28:40;;;;;;;;;;;;;;;;;;5042679;28;20547;-84
2022/09/03 10:31:24;;;;;;;3.30;2.60;;;;;;;;;;5051592;28;20092;-84
2022/09/03 10:33:59;;;;;;;4.28;2.50;;;;;;;;;;5053863;28;20028;-84
2022/09/03 10:36:40;;;;;;;3.75;2.70;;;;;;;;;;5054031;28;20083;-85
2022/09/03 10:39:29;;;;;;;3.13;2.50;;;;;;;;;;5052735;28;20508;-86
2022/09/03 10:42:24;;;;;;;6.00;2.50;;;;;;;;;;5048178;28;20045;-88
2022/09/03 10:45:11;;;;;;;3.53;2.42;;;;;;;;;;5038311;28;20033;-87
2022/09/03 10:47:52;;;;;;;2.80;2.30;;;;;;;;;;5055550;28;20037;-86
2022/09/03 10:50:37;;;;;;;3.75;2.58;;;;;;;;;;5056204;28;20540;-86
2022/09/03 10:53:28;;;;;;;4.65;2.50;;;;;;;;;;5054936;28;20041;-87
2022/09/03 10:56:04;;;;;;;3.10;2.10;;;;;;;;;;5053670;28;20112;-87
2022/09/03 10:58:41;;;;;;;4.13;2.03;;;;;;;;;;5055407;28;20108;-88
2022/09/03 11:01:54;;;;;;;3.35;2.03;;;;;;;;;;5071901;28;20494;-87
2022/09/03 11:04:53;;;;;;;2.78;1.92;;;;;;;;;;5053066;28;20417;-87
2022/09/03 11:07:30;;;;;;;3.72;2.08;;;;;;;;;;5059020;28;20041;-87
2022/09/03 11:10:12;;;;;;;2.85;2.30;;;;;;;;;;5058725;28;20059;-87
2022/09/03 11:12:44;;;;;;;3.03;2.20;;;;;;;;;;5058562;28;20098;-87
2022/09/03 11:15:24;;;;;;;6.75;2.20;;;;;;;;;;5040826;28;20383;-87
2022/09/03 11:17:57;;;;;;;2.92;2.20;;;;;;;;;;5059026;28;20122;-87
2022/09/03 11:20:24;;;;;;;2.95;2.20;;;;;;;;;;5059965;28;20055;-87
2022/09/03 11:22:56;;;;;;;4.07;2.38;;;;;;;;;;5042358;28;20090;-87
2022/09/03 11:25:27;;;;;;;2.50;2.03;;;;;;;;;;5059934;28;20115;-87
2022/09/03 11:28:20;;;;;;;2.85;2.15;;;;;;;;;;5059958;28;20036;-87
2022/09/03 11:31:05;;;;;;;2.67;2.30;;;;;;;;;;5061413;28;20041;-87
2022/09/03 11:33:34;;;;;;;3.03;2.22;;;;;;;;;;5064836;28;20272;-87
2022/09/03 11:36:00;;;;;;;3.25;1.85;;;;;;;;;;5063168;28;20116;-86
2022/09/03 11:38:30;;;;;;;3.20;2.00;;;;;;;;;;5066228;28;20108;-86
2022/09/03 11:41:23;;;;;;;3.33;2.13;;;;;;;;;;5062407;28;20036;-86
2022/09/03 11:43:48;;;;;;;3.42;2.15;;;;;;;;;;5063137;28;20029;-87
2022/09/03 11:46:20;;;;;;;2.35;1.95;;;;;;;;;;5056360;28;20143;-86
2022/09/03 11:49:16;;;;;;;2.20;2.00;;;;;;;;;;5057777;28;20043;-85
2022/09/03 11:51:42;;;;;;;3.17;2.13;;;;;;;;;;5037505;28;20055;-85
2022/09/03 11:54:22;;;;;;;2.50;1.90;;;;;;;;;;5037104;28;20049;-86
2022/09/03 11:56:49;;;;;;;4.25;2.22;;;;;;;;;;5037357;28;20403;-88
2022/09/03 11:59:25;;;;;;;3.00;1.90;;;;;;;;;;5038859;28;20112;-86
2022/09/03 12:01:57;;;;;;;5.60;1.90;;;;;;;;;;5036636;28;20394;-85
2022/09/03 12:04:35;;;;;;;3.53;2.05;;;;;;;;;;5038656;28;20474;-86
2022/09/03 12:07:27;;;;;;;2.95;1.90;;;;;;;;;;5037533;28;20060;-86
2022/09/03 12:09:52;;;;;;;3.55;2.00;;;;;;;;;;5027348;28;20064;-85
2022/09/03 12:12:43;;;;;;;3.47;1.90;;;;;;;;;;5037563;28;20064;-86
2022/09/03 12:15:44;;;;;;;2.72;1.75;;;;;;;;;;5037990;28;20041;-87
2022/09/03 12:18:34;;;;;;;2.45;2.10;;;;;;;;;;5016170;28;20053;-87
2022/09/03 12:21:05;;;;;;;3.10;2.20;;;;;;;;;;5032669;28;20187;-87
2022/09/03 12:23:45;;;;;;;3.05;2.10;;;;;;;;;;5040225;28;20033;-87
2022/09/03 12:26:23;;;;;;;3.03;2.30;;;;;;;;;;5040831;28;20049;-87
2022/09/03 12:28:56;;;;;;;4.93;2.30;;;;;;;;;;5041910;28;20048;-86
2022/09/03 12:31:29;;;;;;;;;;;;;;;;;;5039698;28;20055;-87
2022/09/03 12:34:01;;;;;;;9.43;2.53;;;;;;;;;;5037212;28;20324;-87
2022/09/03 12:36:40;;;;;;;10.13;6.32;;;;;;;;;;5036205;28;20041;-86
2022/09/03 12:39:18;;;;;;;9.27;6.00;;;;;;;;;;5038776;28;20033;-86
2022/09/03 12:42:11;;;;;;;7.18;4.60;;;;;;;;;;5039416;28;20045;-88
2022/09/03 12:44:36;;;;;;;3.20;2.30;;;;;;;;;;5032186;28;20033;-87
2022/09/03 12:47:12;;;;;;;2.80;1.88;;;;;;;;;;5037349;28;20049;-87
2022/09/03 12:49:40;;;;;;;3.15;2.05;;;;;;;;;;5038330;28;20037;-86
2022/09/03 12:52:24;;;;;;;3.90;2.03;;;;;;;;;;5037567;28;20081;-85
2022/09/03 12:54:56;;;;;;;4.65;2.15;;;;;;;;;;5036587;28;20080;-88
2022/09/03 12:57:28;;;;;;;2.75;1.70;;;;;;;;;;5037019;28;20029;-85
2022/09/03 12:59:58;;;;;;;3.35;1.73;;;;;;;;;;5036828;28;20045;-85
2022/09/03 13:02:36;;;;;;;3.05;2.13;;;;;;;;;;5035436;28;20029;-86
2022/09/03 13:05:02;;;;;;;2.60;2.15;;;;;;;;;;5034598;28;20025;-85
2022/09/03 13:07:37;;;;;;;2.90;2.22;;;;;;;;;;5034696;28;20395;-85
2022/09/03 13:10:22;;;;;;;6.50;2.20;;;;;;;;;;5035143;28;20033;-86
2022/09/03 13:12:48;;;;;;;3.78;2.30;;;;;;;;;;5035629;28;20037;-85
2022/09/03 13:15:24;;;;;;;4.05;2.10;;;;;;;;;;5034354;28;20029;-86
2022/09/03 13:18:12;;;;;;;4.82;2.10;;;;;;;;;;5035323;28;20033;-86
2022/09/03 13:20:43;;;;;;;2.40;1.70;;;;;;;;;;5035584;28;20037;-85
2022/09/03 13:23:14;;;;;;;3.70;1.75;;;;;;;;;;5036622;28;20029;-85
2022/09/03 13:26:24;;;;;;;2.92;2.20;;;;;;;;;;5034521;28;20025;-85
2022/09/03 13:29:18;;;;;;;2.30;2.10;;;;;;;;;;4975306;28;20535;-85
2022/09/03 13:31:46;;;;;;;3.72;2.25;;;;;;;;;;5035149;28;20141;-87
2022/09/03 13:34:43;;;;;;;4.45;2.50;;;;;;;;;;5036186;28;20084;-85
2022/09/03 13:37:09;;;;;;;3.28;2.40;;;;;;;;;;5008983;28;20045;-84
2022/09/03 13:39:45;;;;;;;4.68;2.20;;;;;;;;;;5035963;28;20037;-84
2022/09/03 13:42:25;;;;;;;2.95;2.17;;;;;;;;;;5034451;28;20033;-85
2022/09/03 13:45:05;;;;;;;2.80;2.40;;;;;;;;;;5034082;28;20069;-84
2022/09/03 13:47:30;;;;;;;4.20;2.60;;;;;;;;;;5033305;28;20055;-85
2022/09/03 13:50:20;;;;;;;4.68;2.40;;;;;;;;;;5034748;28;20732;-86
2022/09/03 13:52:58;;;;;;;3.33;2.53;;;;;;;;;;5034283;28;20355;-85
2022/09/03 13:55:36;;;;;;;3.17;2.47;;;;;;;;;;5035418;28;20025;-86
2022/09/03 13:58:17;;;;;;;6.88;3.05;;;;;;;;;;5034525;28;20063;-85
2022/09/03 14:00:48;;;;;;;3.75;2.30;;;;;;;;;;5034855;28;20041;-83
2022/09/03 14:03:30;;;;;;;2.45;2.17;;;;;;;;;;5034760;28;20037;-84
2022/09/03 14:06:24;;;;;;;3.47;2.30;;;;;;;;;;5033107;28;20064;-84
2022/09/03 14:09:32;;;;;;;3.00;2.50;;;;;;;;;;5032817;28;20045;-84
2022/09/03 14:12:14;;;;;;;2.83;2.13;;;;;;;;;;5016205;28;20049;-84
2022/09/03 14:15:17;;;;;;;2.92;2.20;;;;;;;;;;5033914;28;20099;-85
2022/09/03 14:18:01;;;;;;;2.17;1.95;;;;;;;;;;5034201;28;20041;-85
2022/09/03 14:20:45;;;;;;;;;;;;;;;;;;5034363;28;20037;-83
2022/09/03 14:23:20;;;;;;;2.63;1.85;;;;;;;;;;5033370;28;19984;-85
2022/09/03 14:25:56;;;;;;;3.15;2.00;;;;;;;;;;5032208;28;20083;-89
2022/09/03 14:28:35;;;;;;;4.00;1.90;;;;;;;;;;5031854;28;20047;-87
2022/09/03 14:31:11;;;;;;;2.15;1.90;;;;;;;;;;5031745;28;20034;-89
2022/09/03 14:33:46;;;;;;;2.85;2.35;;;;;;;;;;5032005;28;20040;-89
2022/09/03 14:36:25;;;;;;;2.25;1.95;;;;;;;;;;5031687;28;20034;-89
2022/09/03 14:38:57;;;;;;;5.43;2.22;;;;;;;;;;5031929;28;20095;-88
2022/09/03 14:41:43;;;;;;;4.07;2.50;;;;;;;;;;5030413;28;20029;-89
2022/09/03 14:44:14;;;;;;;5.35;2.65;;;;;;;;;;5031495;28;20037;-90
2022/09/03 14:46:51;;;;;;;5.35;2.63;;;;;;;;;;5032148;28;20038;-89
2022/09/03 14:49:45;;;;;;;3.70;2.85;;;;;;;;;;5033089;28;20048;-85
2022/09/03 14:52:37;;;;;;;5.90;3.38;;;;;;;;;;5032560;28;20040;-91
2022/09/03 14:55:05;;;;;;;4.13;3.60;;;;;;;;;;5029591;28;20041;-90
2022/09/03 14:57:49;;;;;;;7.15;3.60;;;;;;;;;;5032659;28;20585;-89
2022/09/03 15:00:15;;;;;;;5.30;3.60;;;;;;;;;;5037053;28;20040;-89
2022/09/03 15:02:52;;;;;;;6.13;3.33;;;;;;;;;;5037697;28;20029;-87
2022/09/03 15:05:50;;;;;;;5.13;3.30;;;;;;;;;;5037555;28;20112;-89
2022/09/03 15:08:27;;;;;;;3.65;3.20;;;;;;;;;;5039333;28;20068;-87
2022/09/03 15:11:14;;;;;;;4.38;3.50;;;;;;;;;;5038160;28;20041;-89
2022/09/03 15:14:12;;;;;;;5.18;3.25;;;;;;;;;;5039406;28;20030;-88
2022/09/03 15:17:12;;;;;;;4.10;3.25;;;;;;;;;;4986557;28;20132;-87
2022/09/03 15:20:23;;;;;;;7.82;3.30;;;;;;;;;;4988507;28;20068;-87
2022/09/03 15:23:26;;;;;;;5.57;3.25;;;;;;;;;;5038045;28;20045;-86
2022/09/03 15:26:10;;;;;;;3.40;3.05;;;;;;;;;;5039440;28;20033;-88
2022/09/03 15:28:54;;;;;;;6.00;3.35;;;;;;;;;;5041109;28;20033;-88
2022/09/03 15:31:25;;;;;;;5.07;3.30;;;;;;;;;;5040579;28;20402;-88